BCCTR EDLW-EDDM

Flight info

Callsign BCCTR
Flight time N/A
Altitude 2500
Route DCT
Aircraft BE36/L-V/N

Departure

Time 2026-04-29 09:02
Airport Dortmund Airport (EDLW)

Arrival

Time N/A
Airport Munich Airport (EDDM)
Time Latitude Longitude Altitude Speed Heading
2026-04-29 08:45 51.51219 7.60460 457 ft 0 kts 197°
2026-04-29 08:53 51.51199 7.60436 459 ft 12 kts 242°
2026-04-29 08:53 51.51220 7.60347 450 ft 5 kts 351°
2026-04-29 08:53 51.51244 7.60432 451 ft 8 kts 72°
2026-04-29 08:54 51.51258 7.60478 451 ft 0 kts 58°
2026-04-29 08:54 51.51255 7.60500 453 ft 4 kts 146°
2026-04-29 08:55 51.51231 7.60435 453 ft 18 kts 266°
2026-04-29 08:55 51.51153 7.60200 455 ft 19 kts 254°
2026-04-29 08:55 51.51196 7.60173 448 ft 16 kts 43°
2026-04-29 08:55 51.51256 7.60335 437 ft 16 kts 61°
2026-04-29 08:56 51.51308 7.60475 435 ft 13 kts 65°
2026-04-29 08:56 51.51346 7.60585 438 ft 9 kts 62°
2026-04-29 08:56 51.51374 7.60665 437 ft 8 kts 61°
2026-04-29 08:56 51.51404 7.60752 430 ft 13 kts 63°
2026-04-29 08:57 51.51459 7.60904 430 ft 17 kts 60°
2026-04-29 08:57 51.51509 7.61047 426 ft 12 kts 48°
2026-04-29 08:57 51.51572 7.61031 420 ft 10 kts 297°
2026-04-29 08:57 51.51547 7.60926 423 ft 11 kts 232°
2026-04-29 08:58 51.51500 7.60816 416 ft 13 kts 238°
2026-04-29 08:58 51.51456 7.60680 421 ft 14 kts 245°
2026-04-29 08:58 51.51419 7.60563 422 ft 0 kts 240°
2026-04-29 08:59 51.51418 7.60561 422 ft 0 kts 240°
2026-04-29 08:59 51.51384 7.60462 421 ft 21 kts 241°
2026-04-29 09:00 51.51368 7.60288 419 ft 9 kts 319°
2026-04-29 09:00 51.51457 7.60247 419 ft 18 kts
2026-04-29 09:00 51.51499 7.60284 409 ft 0 kts 56°
2026-04-29 09:00 51.51510 7.60314 417 ft 13 kts 60°
2026-04-29 09:01 51.51594 7.60557 415 ft 40 kts 61°
2026-04-29 09:01 51.51827 7.61162 414 ft 85 kts 60°
2026-04-29 09:01 51.52145 7.62095 616 ft 104 kts 61°
2026-04-29 09:01 51.52525 7.63210 687 ft 121 kts 62°
2026-04-29 09:02 51.52954 7.64476 690 ft 135 kts 66°
2026-04-29 09:02 51.53035 7.65427 778 ft 129 kts 99°
2026-04-29 09:02 51.52440 7.66378 927 ft 129 kts 157°
2026-04-29 09:02 51.51561 7.66496 1074 ft 122 kts 162°
2026-04-29 09:03 51.50762 7.66901 981 ft 136 kts 137°
2026-04-29 09:03 51.50041 7.67980 1135 ft 147 kts 136°
2026-04-29 09:03 51.49244 7.68978 1296 ft 138 kts 140°
2026-04-29 09:03 51.48524 7.69828 1438 ft 119 kts 139°
2026-04-29 09:04 51.47872 7.70548 1494 ft 108 kts 141°
2026-04-29 09:04 51.47189 7.71300 1496 ft 128 kts 141°
2026-04-29 09:04 51.46417 7.72168 1507 ft 144 kts 141°
2026-04-29 09:04 51.45586 7.73155 1511 ft 154 kts 141°
2026-04-29 09:05 51.44708 7.74201 1515 ft 160 kts 140°
2026-04-29 09:05 51.43789 7.75264 1509 ft 164 kts 140°
2026-04-29 09:05 51.42859 7.76345 1511 ft 166 kts 141°
2026-04-29 09:05 51.41933 7.77446 1509 ft 166 kts 140°
2026-04-29 09:06 51.41000 7.78558 1510 ft 169 kts 140°
2026-04-29 09:06 51.40056 7.79713 1503 ft 171 kts 140°
2026-04-29 09:06 51.39107 7.80847 1508 ft 170 kts 141°
2026-04-29 09:06 51.38230 7.82091 1503 ft 169 kts 122°
2026-04-29 09:07 51.37907 7.83870 1499 ft 168 kts 94°
2026-04-29 09:07 51.37722 7.85691 1494 ft 166 kts 115°
2026-04-29 09:07 51.37012 7.87129 1509 ft 164 kts 130°
2026-04-29 09:07 51.36259 7.88456 1611 ft 155 kts 129°
2026-04-29 09:08 51.35543 7.89691 1782 ft 149 kts 128°
2026-04-29 09:08 51.34832 7.90877 1932 ft 146 kts 129°
2026-04-29 09:08 51.34143 7.92068 2091 ft 145 kts 127°
2026-04-29 09:08 51.33454 7.93225 2247 ft 143 kts 129°
2026-04-29 09:09 51.32769 7.94384 2396 ft 145 kts 129°
2026-04-29 09:09 51.32100 7.95549 2492 ft 145 kts 128°
2026-04-29 09:09 51.31392 7.96744 2503 ft 151 kts 132°
2026-04-29 09:09 51.30574 7.97849 2510 ft 156 kts 136°
2026-04-29 09:10 51.29707 7.98946 2502 ft 161 kts 137°
2026-04-29 09:10 51.28837 8.00049 2503 ft 158 kts 137°
2026-04-29 09:10 51.27960 8.01117 2506 ft 160 kts 138°
2026-04-29 09:10 51.27077 8.02218 2495 ft 160 kts 137°
2026-04-29 09:11 51.26205 8.03298 2509 ft 158 kts 137°
2026-04-29 09:11 51.25334 8.04358 2497 ft 156 kts 137°
2026-04-29 09:11 51.24492 8.05419 2502 ft 155 kts 137°
2026-04-29 09:11 51.23628 8.06487 2503 ft 159 kts 138°
2026-04-29 09:12 51.22750 8.07567 2501 ft 161 kts 137°
2026-04-29 09:12 51.21874 8.08668 2501 ft 160 kts 137°
2026-04-29 09:12 51.20997 8.09782 2489 ft 160 kts 137°
2026-04-29 09:12 51.20138 8.10869 2499 ft 156 kts 136°
2026-04-29 09:13 51.19264 8.11929 2496 ft 159 kts 136°
2026-04-29 09:13 51.18371 8.12983 2496 ft 160 kts 138°
2026-04-29 09:13 51.17475 8.14046 2506 ft 161 kts 138°
2026-04-29 09:13 51.16574 8.15110 2500 ft 161 kts 137°
2026-04-29 09:14 51.15666 8.16144 2507 ft 161 kts 138°
2026-04-29 09:14 51.14765 8.17160 2544 ft 154 kts 138°
2026-04-29 09:14 51.13924 8.18119 2690 ft 146 kts 137°
2026-04-29 09:14 51.13106 8.19068 2810 ft 144 kts 138°
2026-04-29 09:15 51.12294 8.20024 2939 ft 146 kts 137°
2026-04-29 09:15 51.11475 8.20979 2997 ft 148 kts 137°
2026-04-29 09:15 51.10630 8.21966 2998 ft 153 kts 138°
2026-04-29 09:15 51.09775 8.22994 3002 ft 154 kts 137°
2026-04-29 09:16 51.08908 8.24040 3008 ft 160 kts 137°
2026-04-29 09:16 51.08013 8.25150 3011 ft 166 kts 137°
2026-04-29 09:16 51.07095 8.26284 3008 ft 167 kts 137°
2026-04-29 09:16 51.06162 8.27410 3003 ft 170 kts 138°
2026-04-29 09:17 51.05227 8.28564 3010 ft 171 kts 137°
2026-04-29 09:17 51.04282 8.29716 3005 ft 172 kts 138°
2026-04-29 09:17 51.03337 8.30852 2997 ft 170 kts 137°
2026-04-29 09:17 51.02389 8.31957 2997 ft 168 kts 137°
2026-04-29 09:18 51.01454 8.33030 2988 ft 168 kts 138°
2026-04-29 09:18 51.00513 8.34120 2994 ft 168 kts 138°
2026-04-29 09:18 50.99583 8.35209 2994 ft 162 kts 138°
2026-04-29 09:18 50.98668 8.36278 3001 ft 165 kts 138°
2026-04-29 09:19 50.97735 8.37359 2997 ft 167 kts 138°
2026-04-29 09:19 50.96819 8.38459 2997 ft 160 kts 137°
2026-04-29 09:19 50.95928 8.39527 2983 ft 157 kts 137°
2026-04-29 09:19 50.95069 8.40556 2985 ft 154 kts 138°
2026-04-29 09:20 50.94210 8.41560 2996 ft 155 kts 137°
2026-04-29 09:20 50.93334 8.42583 2998 ft 158 kts 137°
2026-04-29 09:20 50.92431 8.43635 2999 ft 165 kts 138°
2026-04-29 09:20 50.91497 8.44739 3008 ft 168 kts 137°
2026-04-29 09:21 50.90558 8.45838 3001 ft 169 kts 137°
2026-04-29 09:21 50.89637 8.46911 3007 ft 160 kts 137°
2026-04-29 09:21 50.88764 8.47924 3000 ft 157 kts 137°
2026-04-29 09:21 50.87880 8.48937 2995 ft 156 kts 138°
2026-04-29 09:22 50.87013 8.49965 2997 ft 155 kts 137°
2026-04-29 09:22 50.86139 8.51005 3012 ft 160 kts 137°
2026-04-29 09:22 50.85232 8.52080 3017 ft 166 kts 138°
2026-04-29 09:22 50.84291 8.53202 3003 ft 171 kts 137°
2026-04-29 09:23 50.83349 8.54332 2991 ft 170 kts 137°
2026-04-29 09:23 50.82426 8.55446 2997 ft 165 kts 137°
2026-04-29 09:23 50.81507 8.56551 2998 ft 167 kts 137°
2026-04-29 09:23 50.80577 8.57646 2992 ft 166 kts 137°
2026-04-29 09:24 50.79646 8.58738 2997 ft 168 kts 138°
2026-04-29 09:24 50.78702 8.59848 2995 ft 170 kts 137°
2026-04-29 09:24 50.77747 8.60982 2997 ft 174 kts 137°
2026-04-29 09:24 50.76782 8.62134 3003 ft 175 kts 137°
2026-04-29 09:25 50.75808 8.63293 2997 ft 175 kts 138°
2026-04-29 09:25 50.74845 8.64444 2994 ft 172 kts 138°
2026-04-29 09:25 50.73893 8.65583 2990 ft 172 kts 137°
2026-04-29 09:25 50.72939 8.66724 2991 ft 172 kts 137°
2026-04-29 09:26 50.71977 8.67859 2988 ft 173 kts 138°
2026-04-29 09:26 50.71013 8.68996 2991 ft 173 kts 137°
2026-04-29 09:26 50.70047 8.70139 2988 ft 174 kts 138°
2026-04-29 09:26 50.69083 8.71272 2987 ft 172 kts 138°
2026-04-29 09:27 50.68129 8.72401 2988 ft 171 kts 137°
2026-04-29 09:27 50.67175 8.73525 2986 ft 171 kts 138°
2026-04-29 09:27 50.66220 8.74658 2989 ft 172 kts 138°
2026-04-29 09:27 50.65283 8.75786 2988 ft 172 kts 138°
2026-04-29 09:28 50.64337 8.76930 2986 ft 171 kts 137°
2026-04-29 09:28 50.63396 8.78061 2976 ft 169 kts 137°
2026-04-29 09:28 50.62463 8.79180 2976 ft 168 kts 137°
2026-04-29 09:28 50.61528 8.80306 2991 ft 171 kts 137°
2026-04-29 09:29 50.60578 8.81464 2975 ft 172 kts 138°
2026-04-29 09:29 50.58677 8.83747 2976 ft 171 kts 138°
2026-04-29 09:29 50.57723 8.84900 2988 ft 171 kts 137°
2026-04-29 09:30 50.56786 8.86035 2983 ft 173 kts 137°
2026-04-29 09:30 50.55830 8.87187 2979 ft 173 kts 137°
2026-04-29 09:30 50.54878 8.88325 2977 ft 171 kts 137°
2026-04-29 09:30 50.53938 8.89449 2981 ft 169 kts 137°
2026-04-29 09:31 50.53002 8.90573 2991 ft 170 kts 138°
2026-04-29 09:31 50.52059 8.91718 2971 ft 170 kts 137°
2026-04-29 09:31 50.51117 8.92855 2973 ft 171 kts 138°
2026-04-29 09:31 50.50173 8.93999 2975 ft 172 kts 137°
2026-04-29 09:32 50.49227 8.95136 2973 ft 171 kts 138°
2026-04-29 09:32 50.48282 8.96274 2970 ft 171 kts 138°
2026-04-29 09:32 50.47347 8.97420 2971 ft 170 kts 137°
2026-04-29 09:32 50.46413 8.98551 2974 ft 171 kts 138°
2026-04-29 09:33 50.45471 8.99692 2985 ft 172 kts 137°
2026-04-29 09:33 50.44510 9.00864 2971 ft 177 kts 138°
2026-04-29 09:33 50.43543 9.02057 2969 ft 177 kts 137°
2026-04-29 09:33 50.42575 9.03246 2969 ft 177 kts 137°
2026-04-29 09:34 50.41607 9.04431 2963 ft 175 kts 137°
2026-04-29 09:34 50.40651 9.05590 2969 ft 173 kts 138°
2026-04-29 09:34 50.39691 9.06754 2965 ft 175 kts 138°
2026-04-29 09:34 50.38727 9.07923 2961 ft 174 kts 137°
2026-04-29 09:35 50.37770 9.09072 2962 ft 174 kts 138°
2026-04-29 09:35 50.36816 9.10217 2960 ft 171 kts 138°
2026-04-29 09:35 50.35874 9.11359 2971 ft 172 kts 137°
2026-04-29 09:35 50.34917 9.12523 2962 ft 175 kts 138°
2026-04-29 09:36 50.33980 9.13676 2960 ft 172 kts 137°
2026-04-29 09:36 50.33034 9.14822 2952 ft 172 kts 138°
2026-04-29 09:36 50.32095 9.15969 2951 ft 172 kts 138°
2026-04-29 09:36 50.31153 9.17131 2950 ft 172 kts 138°
2026-04-29 09:37 50.30214 9.18293 2946 ft 172 kts 138°
2026-04-29 09:37 50.29268 9.19465 2950 ft 175 kts 137°
2026-04-29 09:37 50.28312 9.20630 2962 ft 174 kts 138°
2026-04-29 09:37 50.27359 9.21796 2964 ft 176 kts 138°
2026-04-29 09:38 50.26400 9.22987 2944 ft 175 kts 138°
2026-04-29 09:38 50.25450 9.24153 2944 ft 173 kts 137°
2026-04-29 09:38 50.24504 9.25289 2946 ft 171 kts 137°
2026-04-29 09:38 50.23558 9.26414 2941 ft 171 kts 138°
2026-04-29 09:39 50.22622 9.27539 2945 ft 170 kts 138°
2026-04-29 09:39 50.21674 9.28691 2943 ft 175 kts 138°
2026-04-29 09:39 50.20723 9.29845 2938 ft 172 kts 138°
2026-04-29 09:39 50.19785 9.30981 2950 ft 171 kts 138°
2026-04-29 09:40 50.18852 9.32134 2941 ft 170 kts 138°
2026-04-29 09:40 50.17930 9.33280 2944 ft 169 kts 137°
2026-04-29 09:40 50.17001 9.34421 2941 ft 170 kts 138°
2026-04-29 09:40 50.16076 9.35560 2950 ft 169 kts 137°
2026-04-29 09:41 50.15134 9.36697 2943 ft 173 kts 139°
2026-04-29 09:41 50.14187 9.37860 2936 ft 173 kts 137°
2026-04-29 09:41 50.13253 9.39000 2937 ft 169 kts 137°
2026-04-29 09:41 50.12318 9.40127 2935 ft 172 kts 137°
2026-04-29 09:42 50.11370 9.41253 2937 ft 172 kts 137°
2026-04-29 09:42 50.10415 9.42372 2935 ft 172 kts 139°
2026-04-29 09:42 50.09468 9.43503 2934 ft 172 kts 138°
2026-04-29 09:42 50.08536 9.44623 2930 ft 170 kts 137°
2026-04-29 09:43 50.07593 9.45746 2933 ft 168 kts 137°
2026-04-29 09:43 50.06662 9.46861 2947 ft 176 kts 138°
2026-04-29 09:43 50.05689 9.48044 2992 ft 178 kts 138°
2026-04-29 09:43 50.04708 9.49242 2991 ft 178 kts 138°
2026-04-29 09:44 50.03742 9.50412 3008 ft 176 kts 138°
2026-04-29 09:44 50.02769 9.51570 2988 ft 174 kts 138°
2026-04-29 09:44 50.01818 9.52692 3004 ft 171 kts 138°
2026-04-29 09:44 50.00871 9.53820 2997 ft 172 kts 137°
2026-04-29 09:45 49.99916 9.54936 3004 ft 170 kts 138°
2026-04-29 09:45 49.98965 9.56028 2999 ft 171 kts 138°
2026-04-29 09:45 49.98001 9.57143 3005 ft 175 kts 138°
2026-04-29 09:45 49.97022 9.58288 3005 ft 177 kts 139°
2026-04-29 09:46 49.96039 9.59425 3003 ft 176 kts 138°
2026-04-29 09:46 49.95056 9.60589 2975 ft 175 kts 137°
2026-04-29 09:46 49.94105 9.61683 2990 ft 168 kts 138°
2026-04-29 09:46 49.93167 9.62767 2999 ft 170 kts 138°
2026-04-29 09:47 49.92214 9.63866 3000 ft 172 kts 138°
2026-04-29 09:47 49.91244 9.64990 2997 ft 176 kts 138°
2026-04-29 09:47 49.90265 9.66135 2994 ft 176 kts 137°
2026-04-29 09:47 49.89280 9.67274 2994 ft 177 kts 138°
2026-04-29 09:48 49.88292 9.68409 2989 ft 175 kts 138°
2026-04-29 09:48 49.87320 9.69528 2991 ft 174 kts 137°
2026-04-29 09:48 49.86336 9.70647 2993 ft 176 kts 138°
2026-04-29 09:48 49.85352 9.71756 2990 ft 174 kts 138°
2026-04-29 09:49 49.84703 9.72487 2984 ft 174 kts 138°
2026-04-29 09:49 49.83734 9.73584 2981 ft 171 kts 138°
2026-04-29 09:49 49.82766 9.74690 2985 ft 175 kts 138°
2026-04-29 09:49 49.81787 9.75828 2975 ft 171 kts 137°
2026-04-29 09:50 49.80976 9.76716 2968 ft 118 kts 137°
2026-04-29 09:50 49.80404 9.77285 2959 ft 82 kts 138°
2026-04-29 09:50 49.79943 9.77710 2816 ft 75 kts 136°
2026-04-29 09:50 49.79500 9.78106 2746 ft 69 kts 136°
2026-04-29 09:51 49.79102 9.78429 2621 ft 62 kts 136°
2026-04-29 09:51 49.78721 9.78733 2463 ft 61 kts 137°
2026-04-29 09:51 49.78452 9.78948 1536 ft 58 kts 131°